createdAt,value
2018-07-11T00:00:37.159Z,88.66
2018-07-11T00:03:05.714Z,89.66
2018-07-11T00:05:34.006Z,89.50
2018-07-11T00:08:02.276Z,87.58
2018-07-11T00:10:38.659Z,88.66
2018-07-11T00:13:24.791Z,87.93
2018-07-11T00:15:52.853Z,88.02
2018-07-11T00:18:20.927Z,86.88
2018-07-11T00:20:49.011Z,87.46
2018-07-11T00:23:17.144Z,87.79
2018-07-11T00:25:45.196Z,87.32
2018-07-11T00:28:13.306Z,87.65
2018-07-11T00:30:41.346Z,87.44
2018-07-11T00:33:09.445Z,87.18
2018-07-11T00:35:37.488Z,87.33
2018-07-11T00:38:05.867Z,88.05
2018-07-11T00:40:33.922Z,86.87
2018-07-11T00:43:01.994Z,88.37
2018-07-11T00:45:30.048Z,87.79
2018-07-11T00:47:58.131Z,88.05
2018-07-11T00:50:26.175Z,87.45
2018-07-11T00:52:54.399Z,87.24
2018-07-11T00:55:22.515Z,87.31
2018-07-11T00:57:50.678Z,87.37
2018-07-11T01:00:18.714Z,87.83
2018-07-11T01:02:47.531Z,86.24
2018-07-11T01:05:15.579Z,86.73
2018-07-11T01:07:44.462Z,87.71
2018-07-11T01:10:12.554Z,88.70
2018-07-11T01:12:40.611Z,90.62
2018-07-11T01:15:08.679Z,90.31
2018-07-11T01:17:42.066Z,90.14
2018-07-11T01:20:10.127Z,87.64
2018-07-11T01:22:38.229Z,87.59
2018-07-11T01:25:06.294Z,87.60
2018-07-11T01:27:34.346Z,87.55
2018-07-11T01:30:02.479Z,86.89
2018-07-11T01:32:30.654Z,88.49
2018-07-11T01:34:58.754Z,87.90
2018-07-11T01:37:26.818Z,87.49
2018-07-11T01:39:54.900Z,87.50
2018-07-11T01:42:23.020Z,87.19
2018-07-11T01:44:51.102Z,87.86
2018-07-11T01:47:19.162Z,88.20
2018-07-11T01:49:47.338Z,88.93
2018-07-11T01:52:26.783Z,89.03
2018-07-11T01:54:54.848Z,88.89
2018-07-11T01:57:22.931Z,88.69
2018-07-11T01:59:51.007Z,88.11
2018-07-11T02:02:19.048Z,87.46
2018-07-11T02:04:47.142Z,87.28
2018-07-11T02:07:15.211Z,87.70
2018-07-11T02:09:43.271Z,88.41
2018-07-11T02:12:11.362Z,89.80
2018-07-11T02:19:06.088Z,88.33
2018-07-11T02:21:34.199Z,86.89
2018-07-11T02:24:03.759Z,87.64
2018-07-11T02:26:31.917Z,86.72
2018-07-11T02:29:03.354Z,87.71
2018-07-11T02:31:31.589Z,87.47
2018-07-11T02:33:59.645Z,88.19
2018-07-11T02:36:28.322Z,88.08
2018-07-11T02:38:56.384Z,88.17
2018-07-11T02:41:24.492Z,87.84
2018-07-11T02:43:52.556Z,87.98
2018-07-11T02:46:24.899Z,88.20
2018-07-11T02:48:52.967Z,87.81
2018-07-11T02:51:21.178Z,89.07
2018-07-11T02:53:49.260Z,89.72
2018-07-11T02:56:17.362Z,90.24
2018-07-11T02:58:45.433Z,89.20
2018-07-11T03:01:13.520Z,89.24
2018-07-11T03:03:41.612Z,89.13
2018-07-11T03:06:10.000Z,88.85
2018-07-11T03:08:38.932Z,88.32
2018-07-11T03:11:07.033Z,88.86
2018-07-11T03:13:35.195Z,88.55
2018-07-11T03:16:03.304Z,87.93
2018-07-11T03:18:31.375Z,87.98
2018-07-11T03:20:59.444Z,89.44
2018-07-11T03:23:27.575Z,90.62
2018-07-11T03:25:55.647Z,91.27
2018-07-11T03:28:23.720Z,91.40
2018-07-11T03:30:51.803Z,91.15
2018-07-11T03:33:19.888Z,90.76
2018-07-11T03:35:47.960Z,90.63
2018-07-11T03:38:16.028Z,89.12
2018-07-11T03:40:44.119Z,88.87
2018-07-11T03:43:12.256Z,88.15
2018-07-11T03:45:40.327Z,87.81
2018-07-11T03:48:08.386Z,87.94
2018-07-11T03:50:36.465Z,88.01
2018-07-11T03:53:04.536Z,87.41
2018-07-11T03:55:32.623Z,87.97
2018-07-11T03:58:00.705Z,87.33
2018-07-11T04:00:28.775Z,88.08
2018-07-11T04:02:57.343Z,88.06
2018-07-11T04:05:25.427Z,87.46
2018-07-11T04:07:53.503Z,87.91
2018-07-11T04:10:21.588Z,87.45
2018-07-11T04:12:55.502Z,88.53
2018-07-11T04:15:23.632Z,88.07
2018-07-11T04:17:51.906Z,88.93
2018-07-11T04:20:19.979Z,88.68
2018-07-11T04:22:48.055Z,88.34
2018-07-11T04:25:16.159Z,88.05
2018-07-11T04:27:44.251Z,86.53
2018-07-11T04:30:12.328Z,86.64
2018-07-11T04:32:40.556Z,86.48
2018-07-11T04:35:08.639Z,86.40
2018-07-11T04:37:36.717Z,85.47
2018-07-11T04:40:04.823Z,85.71
2018-07-11T04:42:32.911Z,86.28
2018-07-11T04:45:01.456Z,85.27
2018-07-11T04:47:29.616Z,84.85
2018-07-11T04:49:58.016Z,85.19
2018-07-11T04:52:26.080Z,84.88
2018-07-11T04:54:54.184Z,84.82
2018-07-11T04:57:22.264Z,84.80
2018-07-11T04:59:50.327Z,84.23
2018-07-11T05:02:18.419Z,83.92
2018-07-11T05:04:46.507Z,83.43
2018-07-11T05:07:14.578Z,83.87
2018-07-11T05:09:42.687Z,83.17
2018-07-11T05:12:10.843Z,83.48
2018-07-11T05:14:38.917Z,84.06
2018-07-11T05:17:06.987Z,83.10
2018-07-11T05:19:35.057Z,83.61
2018-07-11T05:22:03.148Z,83.05
2018-07-11T05:24:31.217Z,81.82
2018-07-11T05:26:59.287Z,80.62
2018-07-11T05:29:27.358Z,80.69
2018-07-11T05:31:55.418Z,78.40
2018-07-11T05:34:23.610Z,78.98
2018-07-11T05:36:51.995Z,79.51
2018-07-11T05:39:20.076Z,79.87
2018-07-11T05:41:48.150Z,79.48
2018-07-11T05:44:16.215Z,78.17
2018-07-11T05:46:44.310Z,77.94
2018-07-11T05:49:12.369Z,77.83
2018-07-11T05:51:40.447Z,76.62
2018-07-11T05:54:08.508Z,77.75
2018-07-11T05:56:36.615Z,77.86
2018-07-11T05:59:04.678Z,77.02
2018-07-11T06:01:32.763Z,77.13
2018-07-11T06:04:00.951Z,77.27
2018-07-11T06:06:29.015Z,75.84
2018-07-11T06:08:57.079Z,75.48
2018-07-11T06:11:25.649Z,74.47
2018-07-11T06:13:54.466Z,73.82
2018-07-11T06:16:23.043Z,74.71
2018-07-11T06:18:51.055Z,74.77
2018-07-11T06:21:19.800Z,75.25
2018-07-11T06:23:47.935Z,74.58
2018-07-11T06:26:16.000Z,72.68
2018-07-11T06:28:44.072Z,73.28
2018-07-11T06:31:12.194Z,73.52
2018-07-11T06:33:40.317Z,73.43
2018-07-11T06:36:08.377Z,73.39
2018-07-11T06:38:38.004Z,75.24
2018-07-11T06:41:06.129Z,72.87
2018-07-11T06:43:34.199Z,72.83
2018-07-11T06:46:02.279Z,74.00
2018-07-11T06:48:30.339Z,71.18
2018-07-11T06:50:58.411Z,71.77
2018-07-11T06:53:26.537Z,72.01
2018-07-11T06:55:54.599Z,70.49
2018-07-11T06:58:22.908Z,69.63
2018-07-11T07:00:51.011Z,69.77
2018-07-11T07:03:19.155Z,69.54
2018-07-11T07:05:47.240Z,70.51
2018-07-11T07:08:16.270Z,69.40
2018-07-11T07:10:44.522Z,70.44
2018-07-11T07:13:12.595Z,69.42
2018-07-11T07:15:40.687Z,68.16
2018-07-11T07:18:08.763Z,68.52
2018-07-11T07:20:36.854Z,68.71
2018-07-11T07:23:04.948Z,68.22
2018-07-11T07:25:33.001Z,68.03
2018-07-11T07:28:01.065Z,67.54
2018-07-11T07:30:29.290Z,65.58
2018-07-11T07:32:57.386Z,65.66
2018-07-11T07:35:25.500Z,66.90
2018-07-11T07:40:20.767Z,66.08
2018-07-11T07:42:48.835Z,66.78
2018-07-11T07:45:17.293Z,66.78
2018-07-11T07:47:46.459Z,66.90
2018-07-11T07:50:15.722Z,65.86
2018-07-11T07:52:43.843Z,65.44
2018-07-11T07:55:12.061Z,64.79
2018-07-11T07:57:41.938Z,64.56
2018-07-11T08:00:10.185Z,64.31
2018-07-11T08:02:38.570Z,63.47
2018-07-11T08:05:08.320Z,64.30
2018-07-11T08:07:37.496Z,63.31
2018-07-11T08:10:06.559Z,63.17
2018-07-11T08:12:34.649Z,64.42
2018-07-11T08:15:02.736Z,63.10
2018-07-11T08:17:30.815Z,63.26
2018-07-11T08:19:58.901Z,62.16
2018-07-11T08:23:09.433Z,64.45
2018-07-11T08:25:48.702Z,65.84
2018-07-11T08:28:27.043Z,64.80
2018-07-11T08:31:34.649Z,62.63
2018-07-11T08:38:17.239Z,63.36
2018-07-11T08:42:02.418Z,63.18
2018-07-11T08:45:13.476Z,62.84
2018-07-11T08:49:55.155Z,62.89
2018-07-11T08:54:40.822Z,60.92
2018-07-11T08:57:51.854Z,60.47
2018-07-11T09:02:01.303Z,59.96
2018-07-11T09:06:49.095Z,59.43
2018-07-11T09:09:32.814Z,59.34
2018-07-11T09:12:14.020Z,58.96
2018-07-11T09:14:53.456Z,59.23
2018-07-11T09:19:35.557Z,57.68
2018-07-11T09:24:20.029Z,55.87
2018-07-11T09:26:48.101Z,57.35
2018-07-11T09:29:16.227Z,56.59
2018-07-11T09:31:44.351Z,56.70
2018-07-11T09:34:12.419Z,55.39
2018-07-11T09:36:40.515Z,56.90
2018-07-11T09:39:08.622Z,56.61
2018-07-11T09:41:36.713Z,55.48
2018-07-11T09:44:04.788Z,56.25
2018-07-11T09:46:32.867Z,56.25
2018-07-11T09:49:00.926Z,55.85
2018-07-11T09:51:29.011Z,56.26
2018-07-11T09:53:57.095Z,56.40
2018-07-11T09:56:25.162Z,56.90
2018-07-11T09:58:53.247Z,56.85
2018-07-11T10:01:25.963Z,55.76
2018-07-11T10:03:54.797Z,56.05
2018-07-11T10:06:22.975Z,56.82
2018-07-11T10:08:51.541Z,56.45
2018-07-11T10:11:19.599Z,55.90
2018-07-11T10:13:48.007Z,55.19
2018-07-11T10:16:16.417Z,56.08
2018-07-11T10:18:53.539Z,56.38
2018-07-11T10:21:21.818Z,55.45
2018-07-11T10:23:49.952Z,54.43
2018-07-11T10:26:18.048Z,53.86
2018-07-11T10:28:46.135Z,53.35
2018-07-11T10:31:14.183Z,54.01
2018-07-11T10:33:42.295Z,53.35
2018-07-11T10:36:10.337Z,53.56
2018-07-11T10:38:38.394Z,53.19
2018-07-11T10:41:06.568Z,54.47
2018-07-11T10:43:34.793Z,53.74
2018-07-11T10:46:03.368Z,53.31
2018-07-11T10:48:31.560Z,53.21
2018-07-11T10:50:59.752Z,52.34
2018-07-11T10:53:27.993Z,52.20
2018-07-11T10:55:56.635Z,52.76
2018-07-11T10:58:24.854Z,52.26
2018-07-11T11:03:30.440Z,52.65
2018-07-11T11:05:58.630Z,51.01
2018-07-11T11:08:27.555Z,52.71
2018-07-11T11:10:55.631Z,52.21
2018-07-11T11:13:24.258Z,53.17
2018-07-11T11:15:53.848Z,52.44
2018-07-11T11:18:22.602Z,52.55
2018-07-11T11:20:51.624Z,54.99
2018-07-11T11:23:19.782Z,55.11
2018-07-11T11:25:47.944Z,54.70
2018-07-11T11:28:15.995Z,52.81
2018-07-11T11:30:44.151Z,55.82
2018-07-11T11:33:12.395Z,55.47
2018-07-11T11:35:40.498Z,54.98
2018-07-11T11:38:08.923Z,55.01
2018-07-11T11:40:37.010Z,53.65
2018-07-11T11:43:05.107Z,55.00
2018-07-11T11:45:33.174Z,53.23
2018-07-11T11:48:02.347Z,53.80
2018-07-11T11:50:30.814Z,51.74
2018-07-11T11:53:00.720Z,53.38
2018-07-11T11:55:29.025Z,53.89
2018-07-11T11:57:59.138Z,55.28
2018-07-11T12:00:27.223Z,56.57
2018-07-11T12:02:55.285Z,56.42
2018-07-11T12:05:23.381Z,57.10
2018-07-11T12:07:52.832Z,56.14
2018-07-11T12:10:20.899Z,55.01
2018-07-11T12:12:48.995Z,55.20
2018-07-11T12:15:17.623Z,56.55
2018-07-11T12:17:45.688Z,56.99
2018-07-11T12:20:13.768Z,57.53
2018-07-11T12:22:42.224Z,57.92
2018-07-11T12:25:10.298Z,57.05
2018-07-11T12:27:38.395Z,56.94
2018-07-11T12:30:06.543Z,57.02
2018-07-11T12:32:34.647Z,57.10
2018-07-11T12:35:02.716Z,56.79
2018-07-11T12:37:30.778Z,56.35
2018-07-11T12:39:59.463Z,55.49
2018-07-11T12:42:27.562Z,55.23
2018-07-11T12:44:55.642Z,54.54
2018-07-11T12:47:28.976Z,54.83
2018-07-11T12:49:57.178Z,54.60
2018-07-11T12:52:25.294Z,53.87
2018-07-11T12:54:53.551Z,53.70
2018-07-11T12:57:21.654Z,53.62
2018-07-11T12:59:50.032Z,53.26
2018-07-11T13:02:18.100Z,51.98
2018-07-11T13:04:46.182Z,50.73
2018-07-11T13:07:14.322Z,50.18
2018-07-11T13:09:42.519Z,51.09
2018-07-11T13:12:10.747Z,48.97
2018-07-11T13:14:38.916Z,49.55
2018-07-11T13:17:07.108Z,49.68
2018-07-11T13:19:35.305Z,49.90
2018-07-11T13:22:03.527Z,51.01
2018-07-11T13:24:31.936Z,49.27
2018-07-11T13:27:00.157Z,49.93
2018-07-11T13:29:28.330Z,46.38
2018-07-11T13:31:56.537Z,45.24
2018-07-11T13:34:24.783Z,47.43
2018-07-11T13:36:53.611Z,46.32
2018-07-11T13:39:44.374Z,46.87
2018-07-11T13:46:42.721Z,46.89
2018-07-11T13:49:24.133Z,48.10
2018-07-11T15:45:31.689Z,52.85
2018-07-11T15:48:00.968Z,50.88
2018-07-11T15:50:29.499Z,53.23
2018-07-11T15:52:58.207Z,52.66
2018-07-11T15:55:26.267Z,54.28
2018-07-11T15:57:55.255Z,53.73
2018-07-11T16:00:27.611Z,54.77
2018-07-11T16:02:55.695Z,54.79
2018-07-11T16:05:25.205Z,55.49
2018-07-11T16:07:54.272Z,55.63
2018-07-11T16:10:27.798Z,54.89
2018-07-11T16:12:55.915Z,57.10
2018-07-11T16:15:23.970Z,60.71
2018-07-11T16:17:52.060Z,57.96
2018-07-11T16:20:20.145Z,61.34
2018-07-11T16:22:48.228Z,62.08
2018-07-11T16:25:16.361Z,62.85
2018-07-11T16:27:44.431Z,63.22
2018-07-11T16:30:12.625Z,60.68
2018-07-11T16:32:40.747Z,59.71
2018-07-11T16:35:08.831Z,58.59
2018-07-11T16:37:36.903Z,60.88
2018-07-11T16:40:05.591Z,59.33
2018-07-11T16:42:35.322Z,59.45
2018-07-11T16:45:03.691Z,60.11
2018-07-11T16:47:31.802Z,59.72
2018-07-11T16:49:59.879Z,60.09
2018-07-11T16:52:28.074Z,64.40
2018-07-11T16:54:56.153Z,62.16
2018-07-11T16:57:32.414Z,62.53
2018-07-11T17:00:04.709Z,62.15
2018-07-11T17:02:32.741Z,66.58
2018-07-11T17:05:04.121Z,64.14
2018-07-11T17:07:34.678Z,64.99
2018-07-11T17:10:05.473Z,67.79
2018-07-11T17:12:33.967Z,64.62
2018-07-11T17:15:02.050Z,66.13
2018-07-11T17:17:33.663Z,68.80
2018-07-11T17:20:06.119Z,70.50
2018-07-11T17:22:44.540Z,69.48
2018-07-11T17:25:12.633Z,72.65
2018-07-11T17:27:40.742Z,68.66
2018-07-11T17:30:08.802Z,67.71
2018-07-11T17:32:39.021Z,69.39
2018-07-11T17:35:07.205Z,67.75
2018-07-11T17:37:35.639Z,67.80
2018-07-11T17:40:07.584Z,65.48
2018-07-11T17:42:35.667Z,69.17
2018-07-11T17:45:07.419Z,69.70
2018-07-11T17:47:43.387Z,70.48
2018-07-11T17:50:11.472Z,70.99
2018-07-11T17:52:54.868Z,71.83
2018-07-11T17:55:28.775Z,74.81
2018-07-11T17:58:01.623Z,75.83
2018-07-11T18:00:51.754Z,76.54
2018-07-11T18:03:25.396Z,76.72
2018-07-11T18:07:00.385Z,77.53
2018-07-11T18:11:40.298Z,79.49
2018-07-11T18:14:08.895Z,78.41
2018-07-11T18:18:45.565Z,78.17
2018-07-11T18:21:20.851Z,75.27
2018-07-11T18:24:01.374Z,77.90
2018-07-11T18:28:50.304Z,77.44
2018-07-11T18:31:29.875Z,77.95
2018-07-11T18:35:16.151Z,78.65
2018-07-11T18:37:58.532Z,77.47
2018-07-11T18:40:34.570Z,80.08
2018-07-11T18:45:16.872Z,80.47
2018-07-11T18:47:55.589Z,82.31
2018-07-11T18:50:46.129Z,81.43
2018-07-11T18:53:27.580Z,81.26
2018-07-11T19:07:51.157Z,82.90
2018-07-11T19:10:52.092Z,74.57
2018-07-11T19:13:33.016Z,73.55
2018-07-11T19:17:20.513Z,75.50
2018-07-11T19:19:57.117Z,76.31
2018-07-11T19:22:37.364Z,75.68
2018-07-11T19:26:17.696Z,77.09
2018-07-11T19:28:58.121Z,79.76
2018-07-11T19:31:43.481Z,74.41
2018-07-11T19:34:26.810Z,76.20
2018-07-11T19:37:06.195Z,74.55
2018-07-11T19:42:24.219Z,74.71
2018-07-11T19:45:12.709Z,75.55
2018-07-11T19:53:07.680Z,74.87
2018-07-11T19:55:49.505Z,74.58
2018-07-11T20:01:55.442Z,75.40
2018-07-11T20:05:26.464Z,75.42
2018-07-11T20:08:31.921Z,74.45
2018-07-11T20:13:42.969Z,74.70
2018-07-11T20:16:15.578Z,76.21
2018-07-11T20:18:43.803Z,78.73
2018-07-11T20:21:36.997Z,79.45
2018-07-11T20:24:11.216Z,80.55
2018-07-11T20:26:42.081Z,79.69
2018-07-11T20:29:11.042Z,81.59
2018-07-11T20:31:40.898Z,81.76
2018-07-11T20:34:09.094Z,85.05
2018-07-11T20:36:37.390Z,84.47
2018-07-11T20:39:05.789Z,83.68
2018-07-11T20:41:34.313Z,83.50
2018-07-11T20:44:03.512Z,83.71
2018-07-11T20:46:32.550Z,83.76
2018-07-11T20:49:06.129Z,83.62
2018-07-11T20:51:34.534Z,83.19
2018-07-11T20:54:02.889Z,83.41
2018-07-11T20:56:31.294Z,85.22
2018-07-11T20:59:12.213Z,85.04
2018-07-11T21:01:51.697Z,84.92
2018-07-11T21:04:40.283Z,84.93
2018-07-11T21:09:20.731Z,86.04
2018-07-11T21:12:07.194Z,86.77
2018-07-11T21:16:50.551Z,86.31
2018-07-11T21:19:19.026Z,86.05
2018-07-11T21:21:55.220Z,86.55
2018-07-11T21:24:23.520Z,86.46
2018-07-11T21:26:54.983Z,86.46
2018-07-11T21:29:23.210Z,88.56
2018-07-11T21:35:01.119Z,90.73
2018-07-11T21:37:40.743Z,90.07
2018-07-11T21:40:10.360Z,89.73
2018-07-11T21:42:38.979Z,90.27
2018-07-11T21:45:07.227Z,89.56
2018-07-11T21:47:37.932Z,89.84
2018-07-11T21:50:06.202Z,90.17
2018-07-11T21:52:34.859Z,90.34
2018-07-11T21:55:03.967Z,90.43
2018-07-11T21:57:32.177Z,89.01
2018-07-11T22:00:00.411Z,89.55
2018-07-11T22:02:44.308Z,89.09
2018-07-11T22:05:12.581Z,89.73
2018-07-11T22:07:40.757Z,90.23
2018-07-11T22:10:11.124Z,89.17
2018-07-11T22:12:39.506Z,89.71
2018-07-11T22:15:07.685Z,89.66
2018-07-11T22:17:47.222Z,89.02
2018-07-11T22:20:14.517Z,88.83
2018-07-11T22:22:41.677Z,89.60
2018-07-11T22:25:08.895Z,89.94
2018-07-11T22:27:36.040Z,89.55
2018-07-11T22:30:04.724Z,89.20
2018-07-11T22:32:31.830Z,89.09
2018-07-11T22:34:58.965Z,89.86
2018-07-11T22:37:26.425Z,89.72
2018-07-11T22:39:53.593Z,89.19
2018-07-11T22:42:20.677Z,90.18
2018-07-11T22:44:48.628Z,89.50
2018-07-11T22:47:15.722Z,90.70
2018-07-11T22:49:48.257Z,90.65
2018-07-11T22:52:15.386Z,89.51
2018-07-11T22:54:43.490Z,90.32
2018-07-11T22:57:10.587Z,89.58
2018-07-11T22:59:37.824Z,90.74
2018-07-11T23:02:05.082Z,91.56
2018-07-11T23:04:32.191Z,90.78
2018-07-11T23:07:01.434Z,92.80
2018-07-11T23:09:33.003Z,91.71
2018-07-11T23:12:00.540Z,92.51
2018-07-11T23:14:27.774Z,92.92
2018-07-11T23:16:55.010Z,93.23
2018-07-11T23:19:22.407Z,93.31
2018-07-11T23:21:49.600Z,92.49
2018-07-11T23:24:17.870Z,91.81
2018-07-11T23:27:09.414Z,91.59
2018-07-11T23:29:38.383Z,91.94
2018-07-11T23:32:05.680Z,91.78
2018-07-11T23:34:37.045Z,92.28
2018-07-11T23:37:05.573Z,93.38
2018-07-11T23:39:47.066Z,93.48
2018-07-11T23:43:13.249Z,92.71
2018-07-11T23:46:12.838Z,92.03
2018-07-11T23:48:47.632Z,92.48
2018-07-11T23:51:16.128Z,93.10
2018-07-11T23:56:22.050Z,94.68
2018-07-11T23:58:49.428Z,94.54
